Time;durP1;ratioP1;P1;durP2;ratioP2;P2;SDS_P1;SDS_P2;PMS_P1;PMS_P2;Temp;Humidity;BMP_temperature;BMP_pressure;BME280_temperature;BME280_humidity;BME280_pressure;Samples;Min_cycle;Max_cycle;Signal;HPM_P1;HPM_P2
2023/01/11 00:01:01;;;;;;;7.43;5.75;;;;;;;7.81;100.00;162607.06;5069554;28;20044;-67
2023/01/11 00:03:28;;;;;;;23.95;6.03;;;;;;;7.94;100.00;162642.06;5071000;28;20053;-68
2023/01/11 00:05:56;;;;;;;7.10;6.47;;;;;;;7.86;100.00;162619.19;5069477;28;20035;-68
2023/01/11 00:08:23;;;;;;;9.07;8.25;;;;;;;7.98;100.00;162650.19;5069397;28;20396;-67
2023/01/11 00:10:49;;;;;;;7.82;7.22;;;;;;;7.94;100.00;162640.75;5069102;28;20491;-68
2023/01/11 00:13:14;;;;;;;8.15;7.38;;;;;;;8.01;100.00;162659.63;5056856;28;20082;-64
2023/01/11 00:15:39;;;;;;;12.65;6.72;;;;;;;8.00;100.00;162656.91;5049554;28;20036;-64
2023/01/11 00:18:04;;;;;;;7.53;6.72;;;;;;;8.00;100.00;162655.59;5051212;28;20025;-65
2023/01/11 00:20:30;;;;;;;10.00;7.40;;;;;;;8.04;100.00;162666.34;5048644;28;20460;-64
2023/01/11 00:22:55;;;;;;;10.10;7.72;;;;;;;8.05;100.00;162669.03;5050698;28;20139;-64
2023/01/11 00:25:21;;;;;;;10.63;7.32;;;;;;;8.06;100.00;162671.75;5049196;28;20037;-64
2023/01/11 00:27:48;;;;;;;8.07;7.32;;;;;;;8.03;100.00;162665.00;5050588;28;20025;-64
2023/01/11 00:30:14;;;;;;;12.82;7.05;;;;;;;8.07;100.00;162674.44;5048943;28;20388;-64
2023/01/11 00:32:39;;;;;;;10.65;7.05;;;;;;;8.05;100.00;162669.03;5050934;28;20025;-64
2023/01/11 00:35:05;;;;;;;12.32;8.85;;;;;;;8.06;100.00;162673.06;5050703;28;20032;-64
2023/01/11 00:37:30;;;;;;;11.65;8.88;;;;;;;8.10;100.00;162682.50;5049316;28;20037;-64
2023/01/11 00:39:55;;;;;;;6.50;5.90;;;;;;;8.10;100.00;162682.50;5051062;28;20029;-64
2023/01/11 00:47:59;;;;;;;7.60;5.60;;;;;;;8.02;100.00;162662.31;5049860;28;20094;-64
2023/01/11 00:50:27;;;;;;;6.80;6.30;;;;;;;8.16;100.00;162698.66;5049041;28;20039;-65
2023/01/11 00:52:53;;;;;;;6.60;5.97;;;;;;;8.17;100.00;162700.03;5050565;28;20061;-64
2023/01/11 00:55:18;;;;;;;6.13;5.57;;;;;;;8.25;100.00;162722.94;5049343;28;20032;-65
2023/01/11 00:57:43;;;;;;;5.60;4.95;;;;;;;8.28;100.00;162728.34;5050384;28;20387;-64
2023/01/11 01:00:09;;;;;;;4.75;4.35;;;;;;;8.30;100.00;162733.75;5048884;28;20021;-63
2023/01/11 01:02:35;;;;;;;4.68;4.38;;;;;;;8.33;100.00;162743.19;5050589;28;20025;-64
2023/01/11 01:05:00;;;;;;;5.93;4.88;;;;;;;8.36;100.00;162749.91;5050578;28;20472;-65
2023/01/11 01:07:25;;;;;;;5.03;4.55;;;;;;;8.36;100.00;162749.91;5048811;28;20059;-65
2023/01/11 01:09:51;;;;;;;5.93;5.43;;;;;;;8.38;100.00;162755.25;5050567;28;20024;-65
2023/01/11 01:15:02;;;;;;;4.88;4.38;;;;;;;8.44;100.00;162771.50;5049343;28;20464;-65
2023/01/11 01:17:27;;;;;;;4.88;4.43;;;;;;;8.45;100.00;162772.81;5048905;28;20103;-65
2023/01/11 01:19:52;;;;;;;4.63;3.92;;;;;;;8.45;100.00;162774.13;5050050;28;20028;-65
2023/01/11 01:22:18;;;;;;;5.00;4.22;;;;;;;8.43;100.00;162768.78;5048434;28;20052;-65
2023/01/11 01:24:43;;;;;;;4.78;4.38;;;;;;;8.45;100.00;162774.13;5050668;28;20024;-65
2023/01/11 01:27:09;;;;;;;5.13;4.63;;;;;;;8.42;100.00;162766.09;5048281;28;20514;-65
2023/01/11 01:29:35;;;;;;;8.82;5.15;;;;;;;8.47;100.00;162779.59;5050721;28;20031;-65
2023/01/11 01:32:00;;;;;;;4.55;4.20;;;;;;;8.48;100.00;162782.28;5048785;28;20496;-65
2023/01/11 01:34:25;;;;;;;7.97;4.07;;;;;;;8.51;100.00;162790.41;5049883;28;20033;-65
2023/01/11 01:36:51;;;;;;;7.68;5.43;;;;;;;8.47;100.00;162779.59;5048937;28;20037;-65
2023/01/11 01:39:16;;;;;;;4.88;4.47;;;;;;;8.49;100.00;162785.00;5050057;28;20043;-65
2023/01/11 01:41:41;;;;;;;6.72;5.15;;;;;;;8.47;100.00;162779.59;5048407;28;20573;-65
2023/01/11 01:44:56;;;;;;;7.22;4.75;;;;;;;8.46;100.00;162776.84;5053194;28;20074;-65
2023/01/11 01:47:33;;;;;;;5.95;4.80;;;;;;;8.48;100.00;162780.97;5048591;28;20127;-65
2023/01/11 01:50:03;;;;;;;7.72;5.65;;;;;;;8.48;100.00;162782.28;5054233;28;20029;-65
2023/01/11 01:52:30;;;;;;;8.38;5.43;;;;;;;8.46;100.00;162776.84;5052217;28;20080;-65
2023/01/11 01:55:04;;;;;;;5.38;4.97;;;;;;;8.52;100.00;162793.09;5053728;28;20052;-66
2023/01/11 01:57:34;;;;;;;8.10;4.97;;;;;;;8.52;100.00;162793.09;5052208;28;20040;-65
2023/01/11 02:00:02;;;;;;;4.90;4.43;;;;;;;8.48;100.00;162782.28;5054171;28;20378;-65
2023/01/11 02:02:27;;;;;;;5.72;4.10;;;;;;;8.46;100.00;162775.50;5051638;28;20631;-65
2023/01/11 02:04:56;;;;;;;5.00;4.60;;;;;;;8.48;100.00;162780.97;5053551;28;20049;-65
2023/01/11 02:07:26;;;;;;;8.80;4.85;;;;;;;8.48;100.00;162782.28;5052069;28;20408;-65
2023/01/11 02:09:51;;;;;;;6.57;5.97;;;;;;;8.49;100.00;162783.69;5053637;28;20032;-65
2023/01/11 02:12:19;;;;;;;15.02;5.93;;;;;;;8.47;100.00;162778.28;5051650;28;20446;-65
2023/01/11 02:14:46;;;;;;;6.45;5.35;;;;;;;8.51;100.00;162789.03;5048688;28;20029;-65
2023/01/11 02:17:12;;;;;;;7.68;5.65;;;;;;;8.46;100.00;162775.50;5051413;28;20091;-65
2023/01/11 02:20:12;;;;;;;7.13;6.43;;;;;;;8.48;100.00;162782.28;5053571;28;20036;-65
2023/01/11 02:22:44;;;;;;;7.40;6.70;;;;;;;8.52;100.00;162793.09;5014393;28;20210;-66
2023/01/11 02:25:21;;;;;;;14.07;6.95;;;;;;;8.50;100.00;162787.72;5051615;28;20036;-66
2023/01/11 02:28:01;;;;;;;7.25;6.53;;;;;;;8.51;100.00;162790.41;5053571;28;20052;-66
2023/01/11 02:30:34;;;;;;;9.57;6.57;;;;;;;8.53;100.00;162795.75;5051691;28;20541;-66
2023/01/11 02:33:21;;;;;;;7.13;6.50;;;;;;;8.48;100.00;162782.28;5052729;28;20028;-65
2023/01/11 02:36:22;;;;;;;9.07;7.10;;;;;;;8.46;100.00;162775.50;5053341;28;20484;-66
2023/01/11 02:39:15;;;;;;;6.80;6.20;;;;;;;8.50;100.00;162787.72;5051849;28;20048;-67
2023/01/11 02:47:32;;;;;;;10.77;6.72;;;;;;;8.56;100.00;162802.53;5051048;28;20048;-67
2023/01/11 02:50:06;;;;;;;;;;;;;;;8.61;100.00;162814.63;5066308;28;20539;-67
2023/01/11 02:52:54;;;;;;;9.45;6.32;;;;;;;8.61;100.00;162814.63;5071575;28;19920;-66
2023/01/11 02:55:24;;;;;;;7.38;6.63;;;;;;;8.73;100.00;162848.34;5070678;28;20051;-67
2023/01/11 02:57:54;;;;;;;7.03;5.70;;;;;;;8.77;100.00;162857.78;5071559;28;20079;-67
2023/01/11 03:00:20;;;;;;;6.78;6.28;;;;;;;8.81;100.00;162868.59;5072073;28;20025;-67
2023/01/11 03:02:46;;;;;;;7.15;6.55;;;;;;;8.78;100.00;162859.16;5070807;28;20036;-67
2023/01/11 03:05:13;;;;;;;6.80;6.20;;;;;;;8.79;100.00;162861.81;5072591;28;20384;-67
2023/01/11 03:07:59;;;;;;;8.60;6.43;;;;;;;8.76;100.00;162855.09;5071123;28;20696;-67
2023/01/11 03:10:30;;;;;;;7.95;7.10;;;;;;;8.85;100.00;162879.38;5071610;28;20715;-67
2023/01/11 03:13:03;;;;;;;6.82;6.22;;;;;;;8.89;100.00;162890.19;5071143;28;20452;-67
2023/01/11 03:15:34;;;;;;;6.82;6.22;;;;;;;8.98;100.00;162911.72;5072211;28;20678;-67
2023/01/11 03:18:27;;;;;;;8.25;7.55;;;;;;;9.03;100.00;162925.22;5070345;28;20503;-65
2023/01/11 03:21:29;;;;;;;5.85;5.45;;;;;;;9.04;100.00;162927.94;5072266;28;20021;-66
2023/01/11 03:24:04;;;;;;;6.88;6.18;;;;;;;9.06;100.00;162933.28;5070584;28;20550;-65
2023/01/11 03:26:45;;;;;;;5.95;5.43;;;;;;;9.13;100.00;162952.16;5070714;28;20032;-65
2023/01/11 03:29:23;;;;;;;5.88;5.18;;;;;;;9.19;100.00;162968.38;5066994;28;20052;-65
2023/01/11 03:32:20;;;;;;;5.05;4.43;;;;;;;9.31;100.00;162998.03;5050177;28;20072;-65
2023/01/11 03:38:33;;;;;;;3.97;3.75;;;;;;;9.49;100.00;163046.56;5050385;28;20047;-65
2023/01/11 03:41:06;;;;;;;3.72;3.50;;;;;;;9.55;100.00;163060.09;5057359;28;20070;-65
2023/01/11 03:43:35;;;;;;;2.78;2.60;;;;;;;9.59;100.00;163072.25;5071940;28;20032;-66
2023/01/11 03:46:08;;;;;;;2.90;2.63;;;;;;;9.69;100.00;163097.84;5069768;28;20059;-65
2023/01/11 03:48:57;;;;;;;3.30;3.00;;;;;;;9.78;100.00;163122.16;5071592;28;20055;-65
2023/01/11 03:51:30;;;;;;;3.53;2.70;;;;;;;9.80;100.00;163127.50;5070086;28;20125;-65
2023/01/11 03:53:58;;;;;;;4.07;3.75;;;;;;;9.83;100.00;163135.63;5071724;28;20028;-64
2023/01/11 03:56:51;;;;;;;3.20;3.00;;;;;;;9.90;100.00;163153.19;5069560;28;20033;-64
2023/01/11 03:59:16;;;;;;;2.80;2.60;;;;;;;9.93;100.00;163161.25;5070605;28;20058;-67
2023/01/11 04:01:42;;;;;;;3.67;2.60;;;;;;;9.91;100.00;163155.84;5069629;28;20503;-67
2023/01/11 04:04:08;;;;;;;2.58;2.47;;;;;;;9.98;100.00;163173.41;5071204;28;20052;-67
2023/01/11 04:06:35;;;;;;;2.30;2.20;;;;;;;9.98;100.00;163174.72;5069600;28;20048;-67
2023/01/11 04:09:01;;;;;;;2.28;2.17;;;;;;;9.96;100.00;163168.00;5069077;28;20024;-67
2023/01/11 04:11:26;;;;;;;6.85;3.63;;;;;;;10.00;100.00;163178.81;5049728;28;20040;-67
2023/01/11 04:13:52;;;;;;;2.70;2.50;;;;;;;10.03;100.00;163186.88;5051345;28;20373;-67
2023/01/11 04:16:17;;;;;;;2.90;2.67;;;;;;;10.05;100.00;163192.28;5049293;28;20048;-67
2023/01/11 04:18:42;;;;;;;3.03;2.83;;;;;;;10.01;100.00;163181.53;5051177;28;20028;-66
2023/01/11 04:21:08;;;;;;;2.40;2.30;;;;;;;10.03;100.00;163185.56;5049550;28;20045;-66
2023/01/11 04:23:33;;;;;;;2.63;2.53;;;;;;;10.04;100.00;163189.59;5050966;28;20017;-66
2023/01/11 04:25:58;;;;;;;3.28;2.80;;;;;;;10.05;100.00;163192.28;5049792;28;20495;-66
2023/01/11 04:28:24;;;;;;;3.10;2.78;;;;;;;10.06;100.00;163193.63;5050848;28;20377;-66
2023/01/11 04:30:49;;;;;;;2.75;2.58;;;;;;;10.09;100.00;163203.06;5049295;28;20045;-66
2023/01/11 04:33:14;;;;;;;5.88;2.65;;;;;;;10.09;100.00;163203.06;5050631;28;20055;-66
2023/01/11 04:35:40;;;;;;;3.67;3.25;;;;;;;10.10;100.00;163204.44;5049803;28;20098;-66
2023/01/11 04:38:06;;;;;;;3.42;3.10;;;;;;;10.13;100.00;163213.88;5050670;28;20106;-66
2023/01/11 04:40:31;;;;;;;3.10;2.80;;;;;;;10.13;100.00;163213.88;5049424;28;20052;-66
2023/01/11 04:43:00;;;;;;;2.60;2.50;;;;;;;10.14;100.00;163216.59;5051031;28;20033;-66
2023/01/11 04:45:26;;;;;;;2.65;2.55;;;;;;;10.16;100.00;163220.63;5048678;28;20518;-66
2023/01/11 04:47:54;;;;;;;2.40;2.30;;;;;;;10.15;100.00;163219.28;5050804;28;20033;-66
2023/01/11 04:50:19;;;;;;;2.87;2.70;;;;;;;10.11;100.00;163207.16;5049391;28;20033;-66
2023/01/11 04:52:45;;;;;;;2.58;2.42;;;;;;;10.15;100.00;163219.28;5050424;28;20167;-66
2023/01/11 04:55:10;;;;;;;2.95;2.75;;;;;;;10.21;100.00;163232.78;5048882;28;20380;-65
2023/01/11 04:57:35;;;;;;;2.97;2.78;;;;;;;10.21;100.00;163232.78;5050633;28;20024;-66
2023/01/11 05:00:01;;;;;;;3.90;2.30;;;;;;;10.20;100.00;163230.06;5050318;28;20108;-66
2023/01/11 05:02:26;;;;;;;2.33;2.22;;;;;;;10.21;100.00;163232.78;5048950;28;20567;-66
2023/01/11 05:04:51;;;;;;;2.45;2.25;;;;;;;10.20;100.00;163230.06;5050774;28;20041;-67
2023/01/11 05:07:17;;;;;;;2.35;2.25;;;;;;;10.21;100.00;163232.78;5048472;28;20431;-67
2023/01/11 05:09:42;;;;;;;2.33;2.17;;;;;;;10.22;100.00;163235.47;5052120;28;20024;-67
2023/01/11 05:12:08;;;;;;;2.88;2.67;;;;;;;10.24;100.00;163242.22;5068731;28;20040;-64
2023/01/11 05:14:33;;;;;;;3.97;2.50;;;;;;;10.25;100.00;163243.56;5070113;28;20036;-66
2023/01/11 05:16:58;;;;;;;2.63;2.42;;;;;;;10.26;100.00;163246.25;5070280;28;20518;-66
2023/01/11 05:19:24;;;;;;;2.55;2.45;;;;;;;10.29;100.00;163254.38;5072712;28;20028;-66
2023/01/11 05:21:49;;;;;;;2.90;2.70;;;;;;;10.29;100.00;163254.38;5055384;28;20065;-66
2023/01/11 05:24:15;;;;;;;3.10;2.53;;;;;;;10.28;100.00;163251.66;5059752;28;20094;-66
2023/01/11 05:26:43;;;;;;;3.50;3.17;;;;;;;10.32;100.00;163263.81;5072283;28;20514;-66
2023/01/11 05:29:11;;;;;;;3.88;3.55;;;;;;;10.36;100.00;163271.91;5057023;28;20034;-66
2023/01/11 05:31:38;;;;;;;5.57;3.05;;;;;;;10.38;100.00;163278.72;5052659;28;20061;-66
2023/01/11 05:34:05;;;;;;;3.17;2.92;;;;;;;10.38;100.00;163278.72;5054544;28;20025;-66
2023/01/11 05:36:31;;;;;;;3.75;3.53;;;;;;;10.36;100.00;163271.91;5060845;28;20044;-66
2023/01/11 05:38:56;;;;;;;3.40;3.20;;;;;;;10.38;100.00;163278.72;5073200;28;20372;-66
2023/01/11 05:41:24;;;;;;;4.10;3.70;;;;;;;10.39;100.00;163280.06;5071928;28;20534;-66
2023/01/11 05:46:36;;;;;;;2.80;2.45;;;;;;;10.39;100.00;163281.38;5072706;28;20067;-66
2023/01/11 05:49:02;;;;;;;3.33;3.13;;;;;;;10.40;100.00;163282.78;5074189;28;20028;-66
2023/01/11 05:51:29;;;;;;;3.25;3.00;;;;;;;10.41;100.00;163285.47;5072122;28;20127;-66
2023/01/11 05:54:04;;;;;;;3.28;2.97;;;;;;;10.45;100.00;163297.63;5073883;28;20028;-67
2023/01/11 05:56:30;;;;;;;3.20;2.92;;;;;;;10.49;100.00;163307.06;5067149;28;20565;-66
2023/01/11 05:58:55;;;;;;;2.90;2.70;;;;;;;10.48;100.00;163304.38;5073695;28;20028;-66
2023/01/11 06:01:22;;;;;;;3.50;3.20;;;;;;;10.53;100.00;163317.84;5071847;28;20048;-63
2023/01/11 06:03:47;;;;;;;3.67;3.35;;;;;;;10.52;100.00;163313.81;5073628;28;20080;-61
2023/01/11 06:06:14;;;;;;;3.63;3.33;;;;;;;10.53;100.00;163316.53;5072263;28;20072;-61
2023/01/11 06:08:39;;;;;;;3.28;3.08;;;;;;;10.48;100.00;163304.38;5073512;28;20391;-61
2023/01/11 06:11:04;;;;;;;3.38;3.17;;;;;;;10.53;100.00;163316.53;5072231;28;20037;-60
2023/01/11 06:13:32;;;;;;;3.58;2.97;;;;;;;10.54;100.00;163319.19;5073390;28;20487;-60
2023/01/11 06:15:59;;;;;;;3.90;3.47;;;;;;;10.56;100.00;163324.59;5072071;28;20075;-60
2023/01/11 06:18:25;;;;;;;6.45;4.32;;;;;;;10.51;100.00;163311.09;5073610;28;20035;-60
2023/01/11 06:20:52;;;;;;;5.88;4.07;;;;;;;10.56;100.00;163324.59;5072052;28;20041;-60
2023/01/11 06:23:17;;;;;;;4.68;4.28;;;;;;;10.56;100.00;163324.59;5073034;28;20059;-60
2023/01/11 06:25:43;;;;;;;5.72;5.18;;;;;;;10.56;100.00;163324.59;5072149;28;20510;-60
2023/01/11 06:28:09;;;;;;;5.72;4.93;;;;;;;10.56;100.00;163324.59;5072565;28;20052;-60
2023/01/11 06:30:34;;;;;;;7.75;4.78;;;;;;;10.56;100.00;163324.59;5071596;28;20070;-61
2023/01/11 06:33:08;;;;;;;5.35;4.85;;;;;;;10.56;100.00;163324.59;5073442;28;20031;-60
2023/01/11 06:35:39;;;;;;;5.97;5.47;;;;;;;10.53;100.00;163317.84;5071994;28;20661;-60
2023/01/11 06:38:06;;;;;;;12.75;6.40;;;;;;;10.56;100.00;163325.97;5073133;28;20040;-60
2023/01/11 06:40:32;;;;;;;14.80;5.65;;;;;;;10.53;100.00;163316.53;5071618;28;20687;-60
2023/01/11 06:42:57;;;;;;;5.25;4.75;;;;;;;10.57;100.00;163327.28;5073142;28;20111;-60
2023/01/11 06:45:23;;;;;;;6.65;5.50;;;;;;;10.58;100.00;163331.31;5071124;28;20017;-60
2023/01/11 06:47:48;;;;;;;5.88;5.30;;;;;;;10.59;100.00;163332.72;5073308;28;20033;-60
2023/01/11 06:50:14;;;;;;;9.73;6.03;;;;;;;10.56;100.00;163325.97;5058430;28;20021;-60
2023/01/11 06:52:40;;;;;;;7.22;6.47;;;;;;;10.57;100.00;163328.66;5051987;28;20095;-61
2023/01/11 06:55:05;;;;;;;8.05;7.25;;;;;;;10.64;100.00;163346.19;5051006;28;20487;-61
2023/01/11 06:57:32;;;;;;;7.25;6.53;;;;;;;10.63;100.00;163343.50;5051267;28;20131;-61
2023/01/11 06:59:57;;;;;;;9.60;7.82;;;;;;;10.60;100.00;163335.41;5052645;28;20024;-61
2023/01/11 07:02:23;;;;;;;10.68;7.78;;;;;;;10.62;100.00;163342.16;5050702;28;20041;-61
2023/01/11 07:04:48;;;;;;;8.32;7.20;;;;;;;10.60;100.00;163335.41;5052626;28;20048;-61
2023/01/11 07:07:13;;;;;;;11.77;7.25;;;;;;;10.60;100.00;163335.41;5050669;28;20045;-61
2023/01/11 07:09:39;;;;;;;12.43;9.82;;;;;;;10.68;100.00;163357.03;5048033;28;20025;-61
2023/01/11 07:12:04;;;;;;;14.18;9.30;;;;;;;10.62;100.00;163342.16;5050914;28;20082;-61
2023/01/11 07:14:29;;;;;;;11.10;9.82;;;;;;;10.64;100.00;163346.19;5046175;28;20111;-61
2023/01/11 07:16:55;;;;;;;13.85;9.60;;;;;;;10.64;100.00;163346.19;5050895;28;20037;-61
2023/01/11 07:19:20;;;;;;;16.38;10.02;;;;;;;10.61;100.00;163339.44;5052216;28;20032;-61
2023/01/11 07:21:45;;;;;;;12.20;8.50;;;;;;;10.60;100.00;163336.75;5050403;28;20033;-61
2023/01/11 07:24:11;;;;;;;16.83;8.23;;;;;;;10.56;100.00;163324.59;5051911;28;20535;-61
2023/01/11 07:26:40;;;;;;;11.77;9.68;;;;;;;10.44;100.00;163294.91;5051001;28;20041;-61
2023/01/11 07:29:06;;;;;;;17.27;8.88;;;;;;;10.54;100.00;163319.19;5052058;28;20055;-61
2023/01/11 07:31:31;;;;;;;12.20;10.13;;;;;;;10.41;100.00;163286.81;5050723;28;20052;-60
2023/01/11 07:33:57;;;;;;;14.55;9.60;;;;;;;10.42;100.00;163289.50;5051895;28;20029;-61
2023/01/11 07:36:22;;;;;;;19.38;8.90;;;;;;;10.44;100.00;163293.53;5050123;28;20381;-61
2023/01/11 07:38:47;;;;;;;15.23;10.23;;;;;;;10.42;100.00;163288.19;5051886;28;20047;-61
2023/01/11 07:43:56;;;;;;;16.65;9.60;;;;;;;10.51;100.00;163311.09;5051184;28;20047;-61
2023/01/11 07:46:22;;;;;;;15.20;9.63;;;;;;;10.56;100.00;163324.59;5050271;28;20492;-61
2023/01/11 07:48:47;;;;;;;28.35;11.85;;;;;;;10.48;100.00;163305.69;5052010;28;20029;-61
2023/01/11 07:51:15;;;;;;;15.90;11.02;;;;;;;10.45;100.00;163296.25;5049827;28;20033;-61
2023/01/11 07:53:40;;;;;;;15.45;10.48;;;;;;;10.44;100.00;163294.91;5051743;28;20036;-61
2023/01/11 07:56:06;;;;;;;17.27;11.75;;;;;;;10.38;100.00;163278.72;5050099;28;20037;-61
2023/01/11 07:58:31;;;;;;;24.10;13.90;;;;;;;10.39;100.00;163281.38;5051427;28;20110;-61
2023/01/11 08:01:00;;;;;;;20.40;11.57;;;;;;;10.34;100.00;163267.84;5050193;28;20037;-61
2023/01/11 08:03:25;;;;;;;23.80;12.95;;;;;;;10.34;100.00;163267.84;5051397;28;20051;-60
2023/01/11 08:05:51;;;;;;;23.38;10.65;;;;;;;10.43;100.00;163292.22;5049915;28;20515;-59
2023/01/11 08:08:16;;;;;;;28.00;10.57;;;;;;;10.40;100.00;163282.78;5051613;28;20037;-59
2023/01/11 08:10:41;;;;;;;28.25;11.75;;;;;;;10.37;100.00;163274.66;5050042;28;20086;-59
2023/01/11 08:15:56;;;;;;;29.95;12.95;;;;;;;10.34;100.00;163266.53;5050183;28;20044;-60
2023/01/11 08:18:22;;;;;;;28.17;10.90;;;;;;;10.38;100.00;163278.72;5051160;28;20047;-60
2023/01/11 08:20:50;;;;;;;24.42;11.35;;;;;;;10.21;100.00;163232.78;5048220;28;20495;-60
2023/01/11 08:23:16;;;;;;;27.80;10.75;;;;;;;10.23;100.00;163239.53;5051000;28;20100;-59
2023/01/11 08:25:41;;;;;;;21.17;10.35;;;;;;;10.31;100.00;163259.78;5049941;28;20037;-60
2023/01/11 08:28:06;;;;;;;32.13;11.75;;;;;;;10.29;100.00;163254.38;5050535;28;20028;-60
2023/01/11 08:30:32;;;;;;;17.35;9.70;;;;;;;10.23;100.00;163238.19;5049718;28;20041;-60
2023/01/11 08:33:00;;;;;;;24.70;9.48;;;;;;;10.24;100.00;163240.91;5051064;28;20024;-60
2023/01/11 08:35:26;;;;;;;28.58;11.18;;;;;;;10.22;100.00;163235.47;5049083;28;20028;-59
2023/01/11 08:37:51;;;;;;;26.02;11.07;;;;;;;10.24;100.00;163240.91;5051058;28;20024;-60
2023/01/11 08:40:17;;;;;;;26.50;8.98;;;;;;;10.21;100.00;163232.78;5049623;28;20021;-59
2023/01/11 08:42:42;;;;;;;21.15;9.00;;;;;;;10.20;100.00;163231.41;5050517;28;20411;-59
2023/01/11 08:45:07;;;;;;;22.45;10.35;;;;;;;10.17;100.00;163223.34;5050751;28;20029;-59
2023/01/11 08:47:33;;;;;;;25.80;10.20;;;;;;;10.19;100.00;163227.38;5049533;28;20033;-59
2023/01/11 08:49:58;;;;;;;18.10;9.10;;;;;;;10.16;100.00;163221.94;5050394;28;20024;-59
2023/01/11 08:52:23;;;;;;;23.30;7.55;;;;;;;10.13;100.00;163212.50;5048866;28;20455;-59
2023/01/11 08:54:49;;;;;;;22.05;10.43;;;;;;;10.13;100.00;163213.88;5050866;28;20037;-59
2023/01/11 08:57:14;;;;;;;30.92;9.32;;;;;;;10.14;100.00;163215.22;5048613;28;20037;-60
2023/01/11 08:59:40;;;;;;;17.38;7.13;;;;;;;10.12;100.00;163211.19;5050720;28;20021;-60
2023/01/11 09:02:05;;;;;;;21.10;10.02;;;;;;;10.14;100.00;163216.59;5049106;28;20044;-60
2023/01/11 09:04:32;;;;;;;17.60;6.55;;;;;;;10.11;100.00;163208.47;5050236;28;20048;-60
2023/01/11 09:06:58;;;;;;;22.23;8.23;;;;;;;10.07;100.00;163196.31;5049331;28;20041;-60
2023/01/11 09:09:24;;;;;;;27.70;9.73;;;;;;;10.08;100.00;163200.41;5050389;28;20495;-60
2023/01/11 09:11:52;;;;;;;13.75;6.80;;;;;;;10.05;100.00;163192.28;5048563;28;20037;-60
2023/01/11 09:14:17;;;;;;;;;;;;;;;10.02;100.00;163184.19;5042427;28;20033;-60
2023/01/11 09:16:43;;;;;;;28.00;10.27;;;;;;;10.04;100.00;163188.25;5042137;28;19913;-60
2023/01/11 09:19:08;;;;;;;17.00;7.00;;;;;;;10.04;100.00;163188.25;5049811;28;20430;-60
2023/01/11 09:21:33;;;;;;;17.63;6.85;;;;;;;9.96;100.00;163168.00;5049179;28;20041;-59
2023/01/11 09:23:59;;;;;;;28.08;8.90;;;;;;;10.05;100.00;163192.28;5049101;28;20021;-59
2023/01/11 09:26:24;;;;;;;25.75;6.22;;;;;;;10.07;100.00;163197.69;5048187;28;20059;-59
2023/01/11 09:28:49;;;;;;;16.05;6.88;;;;;;;10.06;100.00;163195.00;5050540;28;20025;-59
2023/01/11 09:31:15;;;;;;;20.38;7.22;;;;;;;10.12;100.00;163209.84;5048935;28;20041;-60
2023/01/11 09:33:40;;;;;;;23.08;6.65;;;;;;;10.07;100.00;163197.69;5049778;28;20048;-59
2023/01/11 09:36:06;;;;;;;17.08;5.90;;;;;;;10.16;100.00;163221.94;5048791;28;20111;-59
2023/01/11 09:38:32;;;;;;;26.23;6.50;;;;;;;10.12;100.00;163211.19;5045240;28;20037;-59
2023/01/11 09:41:15;;;;;;;23.15;8.63;;;;;;;10.12;100.00;163211.19;5048367;28;20041;-59
2023/01/11 09:43:49;;;;;;;33.33;7.65;;;;;;;10.20;100.00;163230.06;5050007;28;20431;-59
2023/01/11 09:46:17;;;;;;;17.30;6.35;;;;;;;10.13;100.00;163213.88;5048841;28;20094;-59
2023/01/11 09:48:48;;;;;;;25.10;6.05;;;;;;;10.02;100.00;163184.19;5049910;28;20025;-59
2023/01/11 09:51:15;;;;;;;10.85;5.00;;;;;;;10.07;100.00;163197.69;5048862;28;20087;-59
2023/01/11 09:53:48;;;;;;;20.50;4.82;;;;;;;10.21;100.00;163232.78;5050443;28;20075;-59
2023/01/11 09:56:22;;;;;;;15.50;6.00;;;;;;;10.12;100.00;163211.19;5048355;28;20504;-59
2023/01/11 09:59:05;;;;;;;25.02;6.90;;;;;;;10.16;100.00;163221.94;5050321;28;20074;-59
2023/01/11 10:01:53;;;;;;;31.00;7.70;;;;;;;10.08;100.00;163200.41;5048444;28;20041;-59
2023/01/11 10:04:57;;;;;;;15.73;5.30;;;;;;;10.18;100.00;163224.66;5051343;28;20074;-59
2023/01/11 10:07:53;;;;;;;24.17;6.30;;;;;;;10.19;100.00;163228.75;5052238;28;20033;-59
2023/01/11 10:10:28;;;;;;;17.75;3.92;;;;;;;10.17;100.00;163223.34;5052061;28;20037;-59
2023/01/11 10:13:30;;;;;;;21.17;5.68;;;;;;;9.88;100.00;163146.41;5053277;28;20017;-59
2023/01/11 10:16:19;;;;;;;15.23;6.55;;;;;;;10.03;100.00;163186.88;5052440;28;20041;-59
2023/01/11 10:18:44;;;;;;;;;;;;;;;10.02;100.00;163184.19;5054156;28;20025;-59
2023/01/11 10:21:36;;;;;;;20.00;7.63;;;;;;;9.92;100.00;163157.22;5052245;28;19920;-59
2023/01/11 10:24:15;;;;;;;23.80;7.82;;;;;;;9.88;100.00;163146.41;5053816;28;20085;-59
2023/01/11 10:26:41;;;;;;;17.17;6.20;;;;;;;9.89;100.00;163149.09;5051935;28;20048;-59
2023/01/11 10:32:52;;;;;;;18.55;5.60;;;;;;;9.61;100.00;163076.28;5046461;28;20123;-59
2023/01/11 10:38:42;;;;;;;12.68;4.30;;;;;;;9.61;100.00;163076.28;5052921;28;20083;-59
2023/01/11 10:41:28;;;;;;;18.67;5.38;;;;;;;9.62;100.00;163078.97;5045908;28;20041;-59
2023/01/11 10:44:09;;;;;;;14.88;4.82;;;;;;;9.59;100.00;163070.84;5053258;28;20033;-59
2023/01/11 10:46:49;;;;;;;18.77;5.53;;;;;;;9.62;100.00;163078.97;5049427;28;20041;-59
2023/01/11 10:49:30;;;;;;;15.30;4.38;;;;;;;9.62;100.00;163078.97;5044664;28;20090;-59
2023/01/11 10:52:03;;;;;;;10.77;4.72;;;;;;;9.62;100.00;163078.97;5051392;28;20037;-59
2023/01/11 10:54:32;;;;;;;21.98;4.10;;;;;;;9.66;100.00;163089.75;5052649;28;20056;-59
2023/01/11 10:57:22;;;;;;;26.85;8.00;;;;;;;9.65;100.00;163087.03;5051139;28;20047;-59
2023/01/11 11:00:24;;;;;;;21.83;8.07;;;;;;;9.88;100.00;163146.41;5052701;28;20494;-60
2023/01/11 11:03:23;;;;;;;12.82;5.50;;;;;;;9.87;100.00;163143.69;5050844;28;20037;-60
2023/01/11 11:05:59;;;;;;;10.98;4.68;;;;;;;9.99;100.00;163176.09;5051088;28;20045;-60
2023/01/11 11:09:11;;;;;;;25.63;4.50;;;;;;;10.04;100.00;163189.59;5052743;28;20365;-60
2023/01/11 11:11:45;;;;;;;20.83;6.55;;;;;;;9.98;100.00;163173.41;5038360;28;20033;-60
2023/01/11 11:14:19;;;;;;;21.73;6.30;;;;;;;10.05;100.00;163192.28;5051949;28;20480;-60
2023/01/11 11:16:57;;;;;;;20.15;4.90;;;;;;;10.09;100.00;163203.06;5022084;28;20065;-59
2023/01/11 11:19:28;;;;;;;19.05;6.63;;;;;;;10.09;100.00;163201.75;5032038;28;20026;-60
2023/01/11 11:21:53;;;;;;;29.98;7.45;;;;;;;10.03;100.00;163186.88;5045153;28;20045;-60
2023/01/11 11:24:42;;;;;;;21.95;6.78;;;;;;;10.11;100.00;163208.47;5053508;28;20036;-59
2023/01/11 11:27:25;;;;;;;;;;;;;;;9.98;100.00;163173.41;5050755;28;20044;-60
2023/01/11 11:29:53;;;;;;;21.88;8.25;;;;;;;10.20;100.00;163230.06;5054092;28;20042;-59
2023/01/11 11:32:41;;;;;;;17.00;6.10;;;;;;;10.25;100.00;163244.94;5069606;28;20048;-60
2023/01/11 11:35:34;;;;;;;17.88;6.05;;;;;;;10.32;100.00;163262.44;5049733;28;20036;-60
2023/01/11 11:38:00;;;;;;;18.85;5.78;;;;;;;10.31;100.00;163261.13;5064980;28;20041;-60
2023/01/11 11:40:36;;;;;;;23.10;6.53;;;;;;;10.30;100.00;163258.41;5068712;28;20415;-59
2023/01/11 11:43:21;;;;;;;19.25;7.63;;;;;;;10.15;100.00;163219.28;5071837;28;20021;-59
2023/01/11 11:45:50;;;;;;;18.20;6.80;;;;;;;10.24;100.00;163242.22;5070826;28;20040;-59
2023/01/11 11:48:16;;;;;;;22.25;7.20;;;;;;;10.16;100.00;163221.94;5071165;28;20386;-59
2023/01/11 11:50:41;;;;;;;29.25;7.20;;;;;;;10.04;100.00;163189.59;5070433;28;20144;-59
2023/01/11 11:53:06;;;;;;;32.78;7.65;;;;;;;10.08;100.00;163200.41;5071789;28;20028;-60
2023/01/11 11:55:33;;;;;;;21.35;6.68;;;;;;;9.81;100.00;163130.22;5070048;28;20046;-59
2023/01/11 11:58:04;;;;;;;27.73;8.18;;;;;;;9.98;100.00;163173.41;5071646;28;20529;-59
2023/01/11 12:00:33;;;;;;;23.65;5.20;;;;;;;10.02;100.00;163184.19;5070116;28;20027;-59
2023/01/11 12:03:03;;;;;;;14.38;6.90;;;;;;;10.00;100.00;163178.81;5071109;28;20123;-59